createdAt,value
2022-10-24T00:01:51.105Z,100.00
2022-10-24T00:04:19.865Z,100.00
2022-10-24T00:06:48.293Z,100.00
2022-10-24T00:09:17.054Z,100.00
2022-10-24T00:11:46.200Z,100.00
2022-10-24T00:14:14.834Z,100.00
2022-10-24T00:16:43.418Z,100.00
2022-10-24T00:19:13.610Z,100.00
2022-10-24T00:21:42.143Z,100.00
2022-10-24T00:24:14.386Z,100.00
2022-10-24T00:26:43.422Z,100.00
2022-10-24T00:29:12.993Z,100.00
2022-10-24T00:31:42.279Z,100.00
2022-10-24T00:34:11.010Z,100.00
2022-10-24T00:36:41.795Z,100.00
2022-10-24T00:39:11.952Z,100.00
2022-10-24T00:41:43.227Z,100.00
2022-10-24T00:44:22.351Z,100.00
2022-10-24T00:46:56.395Z,100.00
2022-10-24T00:49:32.395Z,100.00
2022-10-24T00:52:06.852Z,100.00
2022-10-24T00:54:35.997Z,100.00
2022-10-24T00:57:09.895Z,100.00
2022-10-24T00:59:41.558Z,100.00
2022-10-24T01:02:10.376Z,100.00
2022-10-24T01:04:38.719Z,100.00
2022-10-24T01:07:25.292Z,100.00
2022-10-24T01:10:12.032Z,100.00
2022-10-24T01:12:49.997Z,100.00
2022-10-24T01:15:23.098Z,100.00
2022-10-24T01:18:01.101Z,100.00
2022-10-24T01:20:54.849Z,100.00
2022-10-24T01:23:51.152Z,100.00
2022-10-24T01:27:04.427Z,100.00
2022-10-24T01:29:42.160Z,100.00
2022-10-24T01:32:15.744Z,100.00
2022-10-24T01:34:49.288Z,100.00
2022-10-24T01:37:23.253Z,100.00
2022-10-24T01:39:57.811Z,100.00
2022-10-24T01:42:29.397Z,100.00
2022-10-24T01:45:03.181Z,100.00
2022-10-24T01:47:38.144Z,100.00
2022-10-24T01:50:11.266Z,100.00
2022-10-24T01:52:45.935Z,100.00
2022-10-24T01:55:15.453Z,100.00
2022-10-24T01:57:43.984Z,100.00
2022-10-24T02:00:19.335Z,100.00
2022-10-24T02:02:55.388Z,100.00
2022-10-24T02:05:28.218Z,100.00
2022-10-24T02:08:02.348Z,100.00
2022-10-24T02:10:35.709Z,100.00
2022-10-24T02:13:08.367Z,100.00
2022-10-24T02:15:42.227Z,100.00
2022-10-24T02:18:13.059Z,100.00
2022-10-24T02:20:56.761Z,100.00
2022-10-24T02:23:33.969Z,100.00
2022-10-24T02:26:06.245Z,100.00
2022-10-24T02:28:40.106Z,100.00
2022-10-24T02:31:16.218Z,100.00
2022-10-24T02:33:46.431Z,100.00
2022-10-24T02:36:19.092Z,100.00
2022-10-24T02:38:50.247Z,100.00
2022-10-24T02:41:23.714Z,100.00
2022-10-24T02:43:53.541Z,100.00
2022-10-24T02:46:24.753Z,100.00
2022-10-24T02:48:58.691Z,100.00
2022-10-24T02:51:30.955Z,100.00
2022-10-24T02:54:01.307Z,100.00
2022-10-24T02:56:30.444Z,100.00
2022-10-24T02:58:58.886Z,100.00
2022-10-24T03:01:29.053Z,100.00
2022-10-24T03:03:57.450Z,100.00
2022-10-24T03:06:25.938Z,100.00
2022-10-24T03:08:54.869Z,100.00
2022-10-24T03:11:23.590Z,100.00
2022-10-24T03:13:52.924Z,100.00
2022-10-24T03:16:21.872Z,100.00
2022-10-24T03:18:51.608Z,100.00
2022-10-24T03:21:20.722Z,100.00
2022-10-24T03:23:49.286Z,100.00
2022-10-24T03:26:18.266Z,100.00
2022-10-24T03:28:46.956Z,100.00
2022-10-24T03:31:15.514Z,100.00
2022-10-24T03:33:44.074Z,100.00
2022-10-24T03:36:13.876Z,100.00
2022-10-24T03:38:43.220Z,100.00
2022-10-24T03:41:11.673Z,100.00
2022-10-24T03:43:40.209Z,100.00
2022-10-24T03:46:08.890Z,100.00
2022-10-24T03:48:37.687Z,100.00
2022-10-24T03:51:06.774Z,100.00
2022-10-24T03:53:36.754Z,100.00
2022-10-24T03:56:05.557Z,100.00
2022-10-24T03:58:34.333Z,100.00
2022-10-24T04:01:04.861Z,100.00
2022-10-24T04:03:34.946Z,100.00
2022-10-24T04:06:05.167Z,100.00
2022-10-24T04:08:33.939Z,100.00
2022-10-24T04:11:04.106Z,100.00
2022-10-24T04:13:34.382Z,100.00
2022-10-24T04:16:02.746Z,100.00
2022-10-24T04:18:31.300Z,100.00
2022-10-24T04:21:00.061Z,100.00
2022-10-24T04:23:28.531Z,100.00
2022-10-24T04:25:57.492Z,100.00
2022-10-24T04:28:30.088Z,100.00
2022-10-24T04:30:58.970Z,100.00
2022-10-24T04:33:28.008Z,100.00
2022-10-24T04:35:56.585Z,100.00
2022-10-24T04:38:25.376Z,100.00
2022-10-24T04:40:55.599Z,100.00
2022-10-24T04:43:24.615Z,100.00
2022-10-24T04:45:54.783Z,100.00
2022-10-24T04:48:23.201Z,100.00
2022-10-24T04:50:51.557Z,100.00
2022-10-24T04:53:20.135Z,100.00
2022-10-24T04:55:48.479Z,100.00
2022-10-24T04:58:17.130Z,100.00
2022-10-24T05:00:48.753Z,100.00
2022-10-24T05:03:18.551Z,100.00
2022-10-24T05:05:47.655Z,100.00
2022-10-24T05:08:16.756Z,100.00
2022-10-24T05:10:45.777Z,100.00
2022-10-24T05:13:14.748Z,100.00
2022-10-24T05:15:43.340Z,100.00
2022-10-24T05:18:11.722Z,100.00
2022-10-24T05:23:10.563Z,100.00
2022-10-24T05:25:39.140Z,100.00
2022-10-24T05:28:09.313Z,100.00
2022-10-24T05:30:37.855Z,100.00
2022-10-24T05:33:06.650Z,100.00
2022-10-24T05:35:35.679Z,100.00
2022-10-24T05:38:08.566Z,100.00
2022-10-24T05:40:37.133Z,100.00
2022-10-24T05:43:05.560Z,100.00
2022-10-24T05:45:35.589Z,100.00
2022-10-24T05:48:07.300Z,100.00
2022-10-24T05:50:36.348Z,100.00
2022-10-24T05:53:06.270Z,100.00
2022-10-24T05:55:35.978Z,100.00
2022-10-24T05:58:04.928Z,100.00
2022-10-24T06:00:34.287Z,100.00
2022-10-24T06:03:03.387Z,100.00
2022-10-24T06:05:36.319Z,100.00
2022-10-24T06:08:06.398Z,100.00
2022-10-24T06:10:35.276Z,100.00
2022-10-24T06:13:03.901Z,100.00
2022-10-24T06:15:32.675Z,100.00
2022-10-24T06:18:01.931Z,100.00
2022-10-24T06:20:30.554Z,100.00
2022-10-24T06:22:59.051Z,100.00
2022-10-24T06:25:29.506Z,100.00
2022-10-24T06:27:58.268Z,100.00
2022-10-24T06:30:27.156Z,100.00
2022-10-24T06:32:55.967Z,100.00
2022-10-24T06:35:24.380Z,100.00
2022-10-24T06:37:53.268Z,100.00
2022-10-24T06:40:22.173Z,100.00
2022-10-24T06:42:57.124Z,100.00
2022-10-24T06:45:29.477Z,100.00
2022-10-24T06:48:01.508Z,100.00
2022-10-24T06:50:31.227Z,100.00
2022-10-24T06:53:00.061Z,100.00
2022-10-24T06:55:28.441Z,100.00
2022-10-24T06:57:58.689Z,100.00
2022-10-24T07:02:58.417Z,100.00
2022-10-24T07:05:27.032Z,100.00
2022-10-24T07:07:57.392Z,100.00
2022-10-24T07:10:26.274Z,100.00
2022-10-24T07:12:58.472Z,100.00
2022-10-24T07:15:27.170Z,100.00
2022-10-24T07:17:55.591Z,100.00
2022-10-24T07:20:26.427Z,100.00
2022-10-24T07:22:55.017Z,100.00
2022-10-24T07:25:24.139Z,100.00
2022-10-24T07:27:55.055Z,100.00
2022-10-24T07:30:28.197Z,100.00
2022-10-24T07:32:57.037Z,100.00
2022-10-24T07:35:25.824Z,100.00
2022-10-24T07:37:54.215Z,100.00
2022-10-24T07:40:23.584Z,100.00
2022-10-24T07:42:52.197Z,100.00
2022-10-24T07:45:25.199Z,100.00
2022-10-24T07:47:54.198Z,100.00
2022-10-24T07:50:23.192Z,100.00
2022-10-24T07:52:52.311Z,100.00
2022-10-24T07:55:23.105Z,100.00
2022-10-24T07:57:55.068Z,100.00
2022-10-24T08:00:26.525Z,100.00
2022-10-24T08:02:55.201Z,100.00
2022-10-24T08:05:26.514Z,100.00
2022-10-24T08:08:06.192Z,100.00
2022-10-24T08:10:44.242Z,100.00
2022-10-24T08:13:13.675Z,100.00
2022-10-24T08:15:43.856Z,100.00
2022-10-24T08:18:12.875Z,100.00
2022-10-24T08:20:41.893Z,100.00
2022-10-24T08:23:10.643Z,100.00
2022-10-24T08:25:42.398Z,100.00
2022-10-24T08:28:11.189Z,100.00
2022-10-24T08:30:40.889Z,100.00
2022-10-24T08:33:18.575Z,100.00
2022-10-24T08:35:50.322Z,100.00
2022-10-24T08:38:19.459Z,100.00
2022-10-24T08:40:50.478Z,100.00
2022-10-24T08:43:23.064Z,100.00
2022-10-24T08:46:00.038Z,100.00
2022-10-24T08:48:33.828Z,100.00
2022-10-24T08:51:12.848Z,100.00
2022-10-24T08:53:42.393Z,100.00
2022-10-24T08:56:13.417Z,100.00
2022-10-24T08:58:46.327Z,100.00
2022-10-24T09:01:23.624Z,100.00
2022-10-24T09:03:56.676Z,100.00
2022-10-24T09:06:32.940Z,100.00
2022-10-24T09:09:05.290Z,100.00
2022-10-24T09:11:43.687Z,100.00
2022-10-24T09:14:16.888Z,100.00
2022-10-24T09:16:56.349Z,100.00
2022-10-24T09:19:31.702Z,100.00
2022-10-24T09:22:02.682Z,100.00
2022-10-24T09:24:38.815Z,100.00
2022-10-24T09:27:19.389Z,100.00
2022-10-24T09:29:48.348Z,100.00
2022-10-24T09:32:20.049Z,100.00
2022-10-24T09:34:51.764Z,100.00
2022-10-24T09:37:44.213Z,100.00
2022-10-24T09:40:22.729Z,100.00
2022-10-24T09:42:55.868Z,100.00
2022-10-24T09:45:38.218Z,100.00
2022-10-24T09:48:19.749Z,99.31
2022-10-24T09:50:52.209Z,92.29
2022-10-24T09:53:27.646Z,90.38
2022-10-24T09:56:01.254Z,93.70
2022-10-24T09:58:33.933Z,96.09
2022-10-24T10:01:08.967Z,97.99
2022-10-24T10:03:41.639Z,93.87
2022-10-24T10:06:22.187Z,91.20
2022-10-24T10:08:52.431Z,94.16
2022-10-24T10:11:31.573Z,95.24
2022-10-24T10:14:07.207Z,98.84
2022-10-24T10:16:40.197Z,98.47
2022-10-24T10:19:17.243Z,97.86
2022-10-24T10:22:04.707Z,96.14
2022-10-24T10:24:41.899Z,98.48
2022-10-24T10:27:27.160Z,96.79
2022-10-24T10:30:20.843Z,89.63
2022-10-24T10:33:01.962Z,88.89
2022-10-24T10:35:42.437Z,81.65
2022-10-24T10:38:26.861Z,73.79
2022-10-24T10:41:03.777Z,69.09
2022-10-24T10:43:40.353Z,71.55
2022-10-24T10:46:19.319Z,71.98
2022-10-24T10:49:01.084Z,72.51
2022-10-24T10:51:40.520Z,73.56
2022-10-24T10:54:21.136Z,77.28
2022-10-24T10:56:53.828Z,82.89
2022-10-24T10:59:38.874Z,84.71
2022-10-24T11:02:27.960Z,84.83
2022-10-24T11:05:08.884Z,88.93
2022-10-24T11:07:49.977Z,90.89
2022-10-24T11:10:23.764Z,92.09
2022-10-24T11:12:57.623Z,93.75
2022-10-24T11:15:31.265Z,93.28
2022-10-24T11:18:10.977Z,92.84
2022-10-24T11:20:46.121Z,94.07
2022-10-24T11:23:21.189Z,94.32
2022-10-24T11:25:56.230Z,95.98
2022-10-24T11:28:32.688Z,97.95
2022-10-24T11:31:06.758Z,98.18
2022-10-24T11:33:44.587Z,98.83
2022-10-24T11:36:20.876Z,100.00
2022-10-24T11:38:57.833Z,100.00
2022-10-24T11:41:36.906Z,100.00
2022-10-24T11:44:19.354Z,99.85
2022-10-24T11:46:54.734Z,100.00
2022-10-24T11:49:33.246Z,99.62
2022-10-24T11:52:08.061Z,98.55
2022-10-24T11:54:51.167Z,97.68
2022-10-24T11:57:25.819Z,91.92
2022-10-24T11:59:56.676Z,80.31
2022-10-24T12:02:58.937Z,67.00
2022-10-24T12:05:42.331Z,60.86
2022-10-24T12:08:41.950Z,53.15
2022-10-24T12:11:36.904Z,54.40
2022-10-24T12:14:37.963Z,53.39
2022-10-24T12:17:22.371Z,54.13
2022-10-24T12:19:52.615Z,59.68
2022-10-24T12:22:27.775Z,63.22
2022-10-24T12:25:05.796Z,62.66
2022-10-24T12:27:42.881Z,73.63
2022-10-24T12:30:24.522Z,75.42
2022-10-24T12:32:57.349Z,79.79
2022-10-24T12:35:59.992Z,73.42
2022-10-24T12:39:08.198Z,76.84
2022-10-24T12:41:44.814Z,85.16
2022-10-24T12:44:41.488Z,82.37
2022-10-24T12:47:36.660Z,84.46
2022-10-24T12:50:53.447Z,85.92
2022-10-24T12:53:38.934Z,85.33
2022-10-24T12:56:21.924Z,86.94
2022-10-24T12:59:20.418Z,82.88
2022-10-24T13:02:09.207Z,86.23
2022-10-24T13:05:04.700Z,79.97
2022-10-24T13:08:01.764Z,81.15
2022-10-24T13:10:46.320Z,84.01
2022-10-24T13:13:41.049Z,86.05
2022-10-24T13:16:30.788Z,88.66
2022-10-24T13:19:10.728Z,89.17
2022-10-24T13:21:50.982Z,89.79
2022-10-24T13:24:26.709Z,89.73
2022-10-24T13:27:30.998Z,87.70
2022-10-24T13:30:21.740Z,89.98
2022-10-24T13:32:50.653Z,90.97
2022-10-24T13:35:26.509Z,90.85
2022-10-24T13:38:04.753Z,91.94
2022-10-24T13:40:40.341Z,93.19
2022-10-24T13:43:19.687Z,93.05
2022-10-24T13:45:58.974Z,93.81
2022-10-24T13:48:32.600Z,95.11
2022-10-24T13:51:07.987Z,96.42
2022-10-24T13:53:50.567Z,97.93
2022-10-24T13:56:20.679Z,99.06
2022-10-24T13:58:49.502Z,99.48
2022-10-24T14:01:22.234Z,99.80
2022-10-24T14:03:52.287Z,99.38
2022-10-24T14:06:25.899Z,99.51
2022-10-24T14:09:06.411Z,100.00
2022-10-24T14:11:40.903Z,100.00
2022-10-24T14:14:25.872Z,100.00
2022-10-24T14:17:07.902Z,100.00
2022-10-24T14:19:44.357Z,100.00
2022-10-24T14:22:21.457Z,100.00
2022-10-24T14:24:53.566Z,100.00
2022-10-24T14:27:22.790Z,100.00
2022-10-24T14:30:07.180Z,100.00
2022-10-24T14:32:36.820Z,100.00
2022-10-24T14:35:06.609Z,100.00
2022-10-24T14:37:41.069Z,100.00
2022-10-24T14:40:20.199Z,100.00
2022-10-24T14:42:49.553Z,100.00
2022-10-24T14:45:28.238Z,100.00
2022-10-24T14:48:00.696Z,100.00
2022-10-24T14:50:45.000Z,100.00
2022-10-24T14:53:25.575Z,100.00
2022-10-24T14:55:58.944Z,100.00
2022-10-24T14:58:29.936Z,100.00
2022-10-24T15:01:00.102Z,100.00
2022-10-24T15:03:30.083Z,100.00
2022-10-24T15:06:13.799Z,100.00
2022-10-24T15:08:51.420Z,100.00
2022-10-24T15:11:27.783Z,100.00
2022-10-24T15:14:06.796Z,100.00
2022-10-24T15:16:39.590Z,100.00
2022-10-24T15:19:18.065Z,100.00
2022-10-24T15:21:48.573Z,100.00
2022-10-24T15:24:23.783Z,100.00
2022-10-24T15:27:09.799Z,100.00
2022-10-24T15:29:41.843Z,100.00
2022-10-24T15:32:12.974Z,100.00
2022-10-24T15:34:42.870Z,100.00
2022-10-24T15:37:19.681Z,100.00
2022-10-24T15:39:49.112Z,100.00
2022-10-24T15:42:22.338Z,100.00
2022-10-24T15:44:51.492Z,100.00
2022-10-24T15:47:24.073Z,100.00
2022-10-24T15:49:52.930Z,100.00
2022-10-24T15:52:21.714Z,100.00
2022-10-24T15:54:50.835Z,100.00
2022-10-24T15:57:23.731Z,100.00
2022-10-24T15:59:52.868Z,100.00
2022-10-24T16:02:26.150Z,100.00
2022-10-24T16:04:54.805Z,100.00
2022-10-24T16:07:23.505Z,100.00
2022-10-24T16:09:52.475Z,100.00
2022-10-24T16:12:24.377Z,100.00
2022-10-24T16:14:52.941Z,100.00
2022-10-24T16:17:24.585Z,100.00
2022-10-24T16:19:55.560Z,100.00
2022-10-24T16:22:27.214Z,100.00
2022-10-24T16:24:56.184Z,100.00
2022-10-24T16:27:26.321Z,100.00
2022-10-24T16:29:55.463Z,100.00
2022-10-24T16:32:24.430Z,100.00
2022-10-24T16:34:57.154Z,100.00
2022-10-24T16:37:25.844Z,100.00
2022-10-24T16:39:54.673Z,100.00
2022-10-24T16:42:26.552Z,100.00
2022-10-24T16:44:57.234Z,100.00
2022-10-24T16:47:29.593Z,100.00
2022-10-24T16:49:59.545Z,100.00
2022-10-24T16:52:29.869Z,100.00
2022-10-24T16:54:59.450Z,100.00
2022-10-24T16:57:29.693Z,100.00
2022-10-24T16:59:59.974Z,100.00
2022-10-24T17:02:29.448Z,100.00
2022-10-24T17:04:58.380Z,100.00
2022-10-24T17:07:28.718Z,100.00
2022-10-24T17:09:57.834Z,100.00
2022-10-24T17:12:27.680Z,100.00
2022-10-24T17:15:02.680Z,100.00
2022-10-24T17:17:33.438Z,100.00
2022-10-24T17:20:01.803Z,100.00
2022-10-24T17:25:02.384Z,100.00
2022-10-24T17:27:31.502Z,100.00
2022-10-24T17:30:01.945Z,100.00
2022-10-24T17:32:33.208Z,100.00
2022-10-24T17:35:03.058Z,100.00
2022-10-24T17:37:44.578Z,100.00
2022-10-24T17:40:16.396Z,100.00
2022-10-24T17:42:48.044Z,100.00
2022-10-24T17:45:22.273Z,100.00
2022-10-24T17:47:51.548Z,100.00
2022-10-24T17:50:24.791Z,100.00
2022-10-24T17:52:54.365Z,100.00
2022-10-24T17:55:45.267Z,100.00
2022-10-24T17:58:14.424Z,100.00
2022-10-24T18:00:45.516Z,100.00
2022-10-24T18:03:14.629Z,100.00
2022-10-24T18:05:48.538Z,100.00
2022-10-24T18:08:17.661Z,100.00
2022-10-24T18:10:46.246Z,100.00
2022-10-24T18:13:18.005Z,100.00
2022-10-24T18:15:47.904Z,100.00
2022-10-24T18:18:16.588Z,100.00
2022-10-24T18:20:45.609Z,100.00
2022-10-24T18:23:15.171Z,100.00
2022-10-24T18:25:44.599Z,100.00
2022-10-24T18:28:13.565Z,100.00
2022-10-24T18:30:42.461Z,100.00
2022-10-24T18:33:12.495Z,100.00
2022-10-24T18:35:41.008Z,100.00
2022-10-24T18:38:09.651Z,100.00
2022-10-24T18:40:39.349Z,100.00
2022-10-24T18:43:08.656Z,100.00
2022-10-24T18:45:39.264Z,100.00
2022-10-24T18:48:09.315Z,100.00
2022-10-24T18:50:39.377Z,100.00
2022-10-24T18:53:10.710Z,100.00
2022-10-24T18:55:40.534Z,100.00
2022-10-24T18:58:14.123Z,100.00
2022-10-24T19:00:44.345Z,100.00
2022-10-24T19:03:21.857Z,100.00
2022-10-24T19:05:59.196Z,100.00
2022-10-24T19:08:28.706Z,100.00
2022-10-24T19:10:58.372Z,100.00
2022-10-24T19:13:28.326Z,100.00
2022-10-24T19:16:00.339Z,100.00
2022-10-24T19:18:31.548Z,100.00
2022-10-24T19:21:02.274Z,100.00
2022-10-24T19:23:30.742Z,100.00
2022-10-24T19:26:00.057Z,100.00
2022-10-24T19:28:28.931Z,100.00
2022-10-24T19:30:59.628Z,100.00
2022-10-24T19:33:29.636Z,100.00
2022-10-24T19:35:58.564Z,100.00
2022-10-24T19:38:29.014Z,100.00
2022-10-24T19:40:58.647Z,100.00
2022-10-24T19:43:30.978Z,100.00
2022-10-24T19:46:19.421Z,100.00
2022-10-24T19:48:49.744Z,100.00
2022-10-24T19:51:19.890Z,100.00
2022-10-24T19:53:50.859Z,100.00
2022-10-24T19:56:25.035Z,100.00
2022-10-24T19:58:55.551Z,100.00
2022-10-24T20:01:26.678Z,100.00
2022-10-24T20:03:56.348Z,100.00
2022-10-24T20:06:27.052Z,100.00
2022-10-24T20:08:57.892Z,100.00
2022-10-24T20:11:26.658Z,100.00
2022-10-24T20:13:55.516Z,100.00
2022-10-24T20:16:24.287Z,100.00
2022-10-24T20:18:56.059Z,100.00
2022-10-24T20:21:24.935Z,100.00
2022-10-24T20:23:53.792Z,100.00
2022-10-24T20:26:26.498Z,100.00
2022-10-24T20:28:56.915Z,100.00
2022-10-24T20:31:28.139Z,100.00
2022-10-24T20:34:05.140Z,100.00
2022-10-24T20:36:37.921Z,100.00
2022-10-24T20:39:08.921Z,100.00
2022-10-24T20:41:39.846Z,100.00
2022-10-24T20:44:11.224Z,100.00
2022-10-24T20:46:42.845Z,100.00
2022-10-24T20:49:11.541Z,100.00
2022-10-24T20:51:43.293Z,100.00
2022-10-24T20:54:12.314Z,100.00
2022-10-24T20:56:42.933Z,100.00
2022-10-24T20:59:14.252Z,100.00
2022-10-24T21:01:43.050Z,100.00
2022-10-24T21:04:12.863Z,100.00
2022-10-24T21:06:43.209Z,100.00
2022-10-24T21:09:11.567Z,100.00
2022-10-24T21:11:42.371Z,100.00
2022-10-24T21:14:13.402Z,100.00
2022-10-24T21:16:42.024Z,100.00
2022-10-24T21:19:10.843Z,100.00
2022-10-24T21:21:40.057Z,100.00
2022-10-24T21:24:09.264Z,100.00
2022-10-24T21:26:39.013Z,100.00
2022-10-24T21:29:31.698Z,100.00
2022-10-24T21:31:58.302Z,100.00
2022-10-24T21:34:28.827Z,100.00
2022-10-24T21:37:00.643Z,100.00
2022-10-24T21:39:29.288Z,100.00
2022-10-24T21:41:57.806Z,100.00
2022-10-24T21:44:30.256Z,100.00
2022-10-24T21:46:58.764Z,100.00
2022-10-24T21:49:28.185Z,100.00
2022-10-24T21:51:57.190Z,100.00
2022-10-24T21:54:26.520Z,100.00
2022-10-24T21:56:58.076Z,100.00
2022-10-24T21:59:28.821Z,100.00
2022-10-24T22:01:58.045Z,100.00
2022-10-24T22:04:30.309Z,100.00
2022-10-24T22:06:58.756Z,100.00
2022-10-24T22:09:27.537Z,100.00
2022-10-24T22:11:58.244Z,100.00
2022-10-24T22:14:28.104Z,100.00
2022-10-24T22:16:56.886Z,100.00
2022-10-24T22:19:27.384Z,100.00
2022-10-24T22:21:56.106Z,100.00
2022-10-24T22:24:25.445Z,100.00
2022-10-24T22:26:54.266Z,100.00
2022-10-24T22:29:26.822Z,100.00
2022-10-24T22:31:57.714Z,100.00
2022-10-24T22:34:28.610Z,100.00
2022-10-24T22:37:13.046Z,100.00
2022-10-24T22:39:43.562Z,100.00
2022-10-24T22:42:16.043Z,100.00
2022-10-24T22:44:48.506Z,100.00
2022-10-24T22:47:43.526Z,100.00
2022-10-24T22:50:25.506Z,100.00
2022-10-24T22:52:54.186Z,100.00
2022-10-24T22:55:32.682Z,100.00
2022-10-24T22:58:03.500Z,100.00
2022-10-24T23:00:32.628Z,100.00
2022-10-24T23:03:12.779Z,100.00
2022-10-24T23:05:48.993Z,100.00
2022-10-24T23:08:30.859Z,100.00
2022-10-24T23:10:59.865Z,100.00
2022-10-24T23:13:29.030Z,100.00
2022-10-24T23:16:06.534Z,100.00
2022-10-24T23:18:37.100Z,100.00
2022-10-24T23:21:13.892Z,100.00
2022-10-24T23:23:42.811Z,100.00
2022-10-24T23:26:25.043Z,100.00
2022-10-24T23:29:02.757Z,100.00
2022-10-24T23:31:31.687Z,100.00
2022-10-24T23:34:03.068Z,100.00
2022-10-24T23:36:32.292Z,100.00
2022-10-24T23:39:01.594Z,100.00
2022-10-24T23:41:30.864Z,100.00
2022-10-24T23:44:00.101Z,100.00
2022-10-24T23:46:35.974Z,100.00
2022-10-24T23:49:18.926Z,100.00
2022-10-24T23:51:54.922Z,100.00
2022-10-24T23:54:27.218Z,100.00
2022-10-24T23:56:56.302Z,100.00
2022-10-24T23:59:25.046Z,100.00
